Terminal Aerodrome Forecast
Issued by NWS Amarillo, TX

Home | Current Version | Previous Version | Text Only | Print | Product List | Glossary On
Versions: 1 2 3 4 5 6 7 8 9 10 11 12 13 14
000
FTUS44 KAMA 011100
TAFDHT
TAF
KDHT 011129Z 0112/0212 22012KT P6SM SCT300
     FM011600 25013KT P6SM SCT300
     FM012000 14010KT P6SM SCT090 BKN300
     FM020500 01008KT P6SM BKN100 OVC300=

USA.gov is the U.S. government's official web portal to all federal, state and local government web resources and services.